Time;durP1;ratioP1;P1;durP2;ratioP2;P2;SDS_P1;SDS_P2;PMS_P1;PMS_P2;Temp;Humidity;BMP_temperature;BMP_pressure;BME280_temperature;BME280_humidity;BME280_pressure;Samples;Min_cycle;Max_cycle;Signal;HPM_P1;HPM_P2
2021/07/30 00:02:01;;;;;;;10.98;2.92;;;;;;;16.00;75.62;98696.59;5068169;28;20117;-78
2021/07/30 00:04:26;;;;;;;8.45;2.67;;;;;;;15.98;75.76;98688.84;5067925;28;20052;-78
2021/07/30 00:06:51;;;;;;;9.48;2.85;;;;;;;16.05;75.83;98696.31;5066695;28;20025;-78
2021/07/30 00:09:17;;;;;;;10.10;3.05;;;;;;;16.06;76.09;98701.47;5068114;28;20523;-79
2021/07/30 00:11:42;;;;;;;8.20;2.83;;;;;;;16.05;76.08;98684.09;5067963;28;20025;-77
2021/07/30 00:14:08;;;;;;;9.93;2.80;;;;;;;16.04;76.10;98690.25;5066173;28;20469;-77
2021/07/30 00:16:34;;;;;;;13.25;4.00;;;;;;;16.07;76.26;98697.91;5067826;28;20020;-78
2021/07/30 00:19:00;;;;;;;10.85;3.00;;;;;;;16.09;76.31;98700.44;5068140;28;20038;-77
2021/07/30 00:21:25;;;;;;;10.25;3.47;;;;;;;16.12;76.29;98697.63;5067752;28;20025;-77
2021/07/30 00:23:50;;;;;;;7.03;2.60;;;;;;;16.14;76.33;98689.69;5067217;28;20047;-79
2021/07/30 00:26:16;;;;;;;10.70;3.25;;;;;;;16.15;76.37;98694.00;5066614;28;20129;-78
2021/07/30 00:28:41;;;;;;;10.10;3.05;;;;;;;16.13;76.09;98681.03;5067415;28;20040;-78
2021/07/30 00:31:06;;;;;;;8.20;2.33;;;;;;;16.15;76.34;98683.53;5067376;28;20021;-77
2021/07/30 00:33:32;;;;;;;10.30;3.13;;;;;;;16.06;76.16;98667.44;5067473;28;20024;-78
2021/07/30 00:35:57;;;;;;;12.57;3.00;;;;;;;16.13;76.04;98680.16;5065989;28;20053;-77
2021/07/30 00:38:23;;;;;;;5.75;2.40;;;;;;;16.15;75.74;98681.75;5067616;28;20051;-77
2021/07/30 00:40:49;;;;;;;11.70;3.55;;;;;;;16.14;75.75;98687.94;5067304;28;20024;-77
2021/07/30 00:43:14;;;;;;;12.25;2.95;;;;;;;16.12;76.00;98665.41;5066717;28;20027;-76
2021/07/30 00:45:39;;;;;;;11.38;3.63;;;;;;;16.13;75.82;98670.53;5067143;28;20032;-76
2021/07/30 00:48:06;;;;;;;11.52;2.42;;;;;;;16.12;75.64;98678.50;5067736;28;20397;-78
2021/07/30 00:50:32;;;;;;;8.82;2.85;;;;;;;16.09;75.87;98659.41;5067144;28;20021;-77
2021/07/30 00:52:57;;;;;;;7.13;2.97;;;;;;;16.07;76.15;98671.72;5066863;28;20051;-78
2021/07/30 00:55:23;;;;;;;7.95;2.08;;;;;;;16.10;75.96;98658.47;5066881;28;20059;-78
2021/07/30 00:57:49;;;;;;;14.65;3.30;;;;;;;16.08;75.99;98649.03;5066210;28;20025;-77
2021/07/30 01:00:15;;;;;;;7.18;2.50;;;;;;;16.10;76.02;98655.84;5066499;28;20035;-77
2021/07/30 01:02:41;;;;;;;13.18;2.55;;;;;;;16.08;75.68;98656.88;5066264;28;20025;-77
2021/07/30 01:05:07;;;;;;;9.52;3.03;;;;;;;16.00;75.47;98644.25;5066719;28;20119;-76
2021/07/30 01:07:33;;;;;;;6.25;2.65;;;;;;;16.01;75.09;98653.78;5066480;28;20085;-78
2021/07/30 01:09:59;;;;;;;9.20;2.95;;;;;;;15.99;74.98;98642.56;5066596;28;20492;-79
2021/07/30 01:12:24;;;;;;;9.43;2.72;;;;;;;16.04;74.90;98650.97;5065397;28;20027;-79
2021/07/30 01:14:50;;;;;;;10.63;3.30;;;;;;;16.05;75.03;98644.81;5065485;28;20052;-78
2021/07/30 01:17:15;;;;;;;8.95;2.72;;;;;;;16.08;75.07;98649.88;5066822;28;20027;-79
2021/07/30 01:19:40;;;;;;;10.65;2.90;;;;;;;16.10;75.68;98648.00;5065399;28;20021;-78
2021/07/30 01:22:26;;;;;;;8.25;3.05;;;;;;;16.11;75.97;98641.00;5066909;28;20017;-77
2021/07/30 01:24:53;;;;;;;9.80;2.78;;;;;;;16.15;75.71;98637.25;5066302;28;20025;-78
2021/07/30 01:27:19;;;;;;;11.82;3.13;;;;;;;16.04;76.16;98622.19;5066131;28;20056;-78
2021/07/30 01:29:45;;;;;;;11.38;2.80;;;;;;;15.90;76.78;98638.69;5065706;28;20063;-77
2021/07/30 01:32:10;;;;;;;9.35;3.03;;;;;;;15.71;77.69;98621.47;5064618;28;20066;-76
2021/07/30 01:34:36;;;;;;;5.38;2.67;;;;;;;15.65;78.64;98628.81;5066081;28;20089;-77
2021/07/30 01:37:01;;;;;;;4.65;1.83;;;;;;;15.47;79.04;98629.81;5064190;28;20071;-75
2021/07/30 01:39:27;;;;;;;11.85;3.45;;;;;;;15.35;79.65;98628.72;5065349;28;20020;-74
2021/07/30 01:41:52;;;;;;;9.38;3.70;;;;;;;15.31;80.30;98635.06;5065956;28;20024;-73
2021/07/30 01:44:17;;;;;;;13.15;3.53;;;;;;;15.26;80.39;98629.25;5064536;28;20017;-73
2021/07/30 01:46:43;;;;;;;13.90;3.38;;;;;;;15.18;80.84;98637.53;5064496;28;20033;-74
2021/07/30 01:49:09;;;;;;;15.60;3.90;;;;;;;15.18;81.06;98636.66;5064186;28;20016;-74
2021/07/30 01:51:34;;;;;;;11.10;3.92;;;;;;;15.17;81.26;98635.00;5065661;28;20032;-76
2021/07/30 01:53:59;;;;;;;9.43;2.88;;;;;;;15.16;81.10;98622.88;5064511;28;20029;-75
2021/07/30 01:56:25;;;;;;;16.48;3.38;;;;;;;15.20;80.25;98624.38;5066067;28;20025;-78
2021/07/30 01:58:50;;;;;;;9.10;3.38;;;;;;;15.19;80.81;98627.91;5065562;28;20112;-77
2021/07/30 02:01:15;;;;;;;10.48;3.03;;;;;;;15.21;80.31;98626.91;5065657;28;20033;-78
2021/07/30 02:03:41;;;;;;;7.25;2.45;;;;;;;15.21;79.27;98620.81;5064183;28;20021;-78
2021/07/30 02:06:07;;;;;;;6.85;2.50;;;;;;;15.24;79.26;98618.88;5063907;28;20024;-76
2021/07/30 02:08:34;;;;;;;10.40;3.10;;;;;;;15.30;79.19;98622.94;5064358;28;20077;-74
2021/07/30 02:11:00;;;;;;;12.85;3.47;;;;;;;15.31;79.37;98629.84;5065290;28;20102;-77
2021/07/30 02:16:09;;;;;;;8.98;3.15;;;;;;;15.40;79.46;98631.06;5065464;28;20043;-75
2021/07/30 02:18:35;;;;;;;9.90;3.20;;;;;;;15.42;79.45;98626.59;5065365;28;20089;-76
2021/07/30 02:21:00;;;;;;;9.75;3.60;;;;;;;15.42;79.20;98625.75;5065212;28;20033;-74
2021/07/30 02:23:26;;;;;;;7.15;2.85;;;;;;;15.38;79.43;98629.47;5065108;28;20542;-74
2021/07/30 02:25:51;;;;;;;9.02;2.88;;;;;;;15.37;79.73;98628.63;5065150;28;20082;-74
2021/07/30 02:28:16;;;;;;;15.50;4.07;;;;;;;15.38;80.19;98634.72;5064845;28;20025;-76
2021/07/30 02:30:42;;;;;;;8.93;2.63;;;;;;;15.32;80.22;98623.66;5065258;28;20112;-74
2021/07/30 02:33:07;;;;;;;11.02;3.70;;;;;;;15.29;80.46;98633.47;5065016;28;20021;-74
2021/07/30 02:35:35;;;;;;;11.15;3.13;;;;;;;15.21;81.04;98626.03;5064646;28;20182;-74
2021/07/30 02:38:01;;;;;;;13.23;3.90;;;;;;;15.21;81.03;98618.19;5065055;28;20036;-75
2021/07/30 02:40:26;;;;;;;17.58;4.07;;;;;;;15.24;81.12;98629.34;5065304;28;20017;-76
2021/07/30 02:42:51;;;;;;;14.30;3.28;;;;;;;15.24;81.01;98628.47;5064854;28;20047;-76
2021/07/30 02:45:17;;;;;;;11.93;4.05;;;;;;;15.27;80.89;98622.25;5065354;28;20037;-77
2021/07/30 02:47:42;;;;;;;16.25;3.60;;;;;;;15.26;81.15;98610.09;5064969;28;20021;-76
2021/07/30 02:50:08;;;;;;;7.47;2.50;;;;;;;15.23;81.60;98617.19;5065049;28;20079;-76
2021/07/30 02:52:33;;;;;;;6.10;2.22;;;;;;;15.22;81.84;98606.84;5065031;28;20088;-75
2021/07/30 02:54:58;;;;;;;9.88;3.22;;;;;;;15.21;81.76;98608.59;5064840;28;20043;-75
2021/07/30 02:57:24;;;;;;;11.30;3.72;;;;;;;15.23;81.79;98598.06;5064951;28;20441;-76
2021/07/30 02:59:49;;;;;;;11.55;3.60;;;;;;;15.26;81.81;98608.34;5064873;28;20045;-73
2021/07/30 03:02:14;;;;;;;11.43;2.78;;;;;;;15.26;82.00;98607.47;5065163;28;20398;-75
2021/07/30 03:04:40;;;;;;;10.70;3.72;;;;;;;15.29;81.96;98616.00;5063682;28;20096;-77
2021/07/30 03:07:05;;;;;;;14.32;4.18;;;;;;;15.29;82.24;98605.53;5063528;28;20020;-78
2021/07/30 03:09:31;;;;;;;12.50;4.57;;;;;;;15.31;82.02;98600.22;5064937;28;20021;-77
2021/07/30 03:11:56;;;;;;;14.18;3.70;;;;;;;15.33;81.87;98604.44;5065406;28;20021;-77
2021/07/30 03:14:21;;;;;;;11.98;4.18;;;;;;;15.41;81.87;98600.53;5064865;28;20021;-76
2021/07/30 03:16:47;;;;;;;12.88;3.67;;;;;;;15.45;81.59;98602.03;5065137;28;20024;-77
2021/07/30 03:19:12;;;;;;;10.50;4.13;;;;;;;15.47;81.24;98602.81;5065060;28;20043;-76
2021/07/30 03:21:39;;;;;;;10.45;3.22;;;;;;;15.49;81.38;98587.88;5067823;28;20032;-77
2021/07/30 03:24:04;;;;;;;14.65;4.07;;;;;;;15.53;81.54;98594.59;5068678;28;20100;-77
2021/07/30 03:26:30;;;;;;;11.43;3.47;;;;;;;15.56;81.27;98591.81;5068541;28;20029;-78
2021/07/30 03:28:55;;;;;;;12.80;3.53;;;;;;;15.59;81.10;98590.78;5066559;28;20025;-77
2021/07/30 03:31:21;;;;;;;8.82;3.25;;;;;;;15.63;80.75;98599.28;5068459;28;20057;-77
2021/07/30 03:33:46;;;;;;;14.63;4.38;;;;;;;15.59;80.24;98583.78;5067148;28;20024;-78
2021/07/30 03:36:11;;;;;;;12.85;3.60;;;;;;;15.65;80.62;98602.66;5066714;28;20045;-76
2021/07/30 03:38:37;;;;;;;10.35;3.78;;;;;;;15.63;80.20;98586.22;5068243;28;20020;-76
2021/07/30 03:41:03;;;;;;;8.45;3.55;;;;;;;15.65;80.17;98598.28;5068387;28;20054;-76
2021/07/30 03:43:29;;;;;;;13.68;3.65;;;;;;;15.65;80.09;98593.06;5067965;28;20543;-76
2021/07/30 03:45:54;;;;;;;7.18;3.50;;;;;;;15.66;80.22;98591.25;5067269;28;20033;-76
2021/07/30 03:48:19;;;;;;;12.10;3.35;;;;;;;15.65;80.08;98600.03;5068091;28;20056;-77
2021/07/30 03:50:45;;;;;;;10.15;3.60;;;;;;;15.69;80.26;98594.53;5068213;28;20025;-76
2021/07/30 03:53:10;;;;;;;12.05;3.63;;;;;;;15.65;80.58;98593.06;5066749;28;20040;-77
2021/07/30 03:55:35;;;;;;;11.75;4.22;;;;;;;15.78;80.50;98598.41;5067913;28;20376;-76
2021/07/30 03:58:01;;;;;;;8.55;3.30;;;;;;;15.82;80.45;98594.66;5066377;28;20088;-76
2021/07/30 04:00:26;;;;;;;14.27;3.70;;;;;;;15.86;79.92;98592.72;5068041;28;20509;-78
2021/07/30 04:02:51;;;;;;;14.05;4.32;;;;;;;15.86;79.78;98600.56;5067944;28;20017;-78
2021/07/30 04:05:17;;;;;;;4.97;3.03;;;;;;;15.89;79.33;98594.28;5068358;28;20032;-78
2021/07/30 04:07:42;;;;;;;8.63;2.90;;;;;;;15.90;79.06;98590.72;5066722;28;20021;-77
2021/07/30 04:10:09;;;;;;;12.98;3.45;;;;;;;15.91;79.15;98585.41;5067861;28;20494;-78
2021/07/30 04:12:35;;;;;;;12.85;3.53;;;;;;;15.90;79.05;98598.59;5067917;28;20048;-74
2021/07/30 04:15:00;;;;;;;11.07;3.80;;;;;;;15.94;78.87;98589.63;5067740;28;20079;-78
2021/07/30 04:17:25;;;;;;;8.38;2.67;;;;;;;15.96;79.04;98591.22;5067685;28;20020;-78
2021/07/30 04:19:51;;;;;;;11.90;3.42;;;;;;;15.98;79.18;98594.63;5066408;28;20028;-78
2021/07/30 04:22:16;;;;;;;11.13;3.13;;;;;;;16.04;78.78;98593.41;5068008;28;20032;-78
2021/07/30 04:24:41;;;;;;;10.75;2.95;;;;;;;16.08;78.75;98594.91;5067499;28;20055;-77
2021/07/30 04:27:07;;;;;;;10.63;3.28;;;;;;;16.09;78.44;98583.50;5067318;28;20032;-77
2021/07/30 04:29:37;;;;;;;10.30;2.92;;;;;;;16.10;78.10;98593.03;5065921;28;20058;-77
2021/07/30 04:32:03;;;;;;;9.20;2.78;;;;;;;16.13;78.16;98597.25;5066186;28;20055;-77
2021/07/30 04:34:29;;;;;;;10.10;3.08;;;;;;;16.13;77.74;98581.53;5066724;28;20025;-76
2021/07/30 04:36:54;;;;;;;8.68;2.72;;;;;;;16.14;77.69;98591.06;5066961;28;20113;-76
2021/07/30 04:39:20;;;;;;;18.73;3.25;;;;;;;16.16;77.86;98589.22;5065888;28;20071;-77
2021/07/30 04:41:45;;;;;;;13.63;4.68;;;;;;;16.18;78.22;98584.69;5065754;28;20024;-78
2021/07/30 04:44:10;;;;;;;6.85;2.72;;;;;;;16.20;77.81;98587.22;5067048;28;20137;-78
2021/07/30 04:46:36;;;;;;;10.77;4.15;;;;;;;16.22;77.70;98590.59;5067518;28;20031;-78
2021/07/30 04:49:01;;;;;;;13.68;3.33;;;;;;;16.22;77.83;98590.59;5066964;28;20120;-75
2021/07/30 04:51:26;;;;;;;7.00;3.45;;;;;;;16.20;77.89;98589.84;5067002;28;20055;-76
2021/07/30 04:53:52;;;;;;;12.27;3.17;;;;;;;16.16;78.10;98604.91;5066482;28;20028;-76
2021/07/30 04:56:19;;;;;;;8.60;4.20;;;;;;;16.13;78.41;98586.78;5066707;28;20025;-74
2021/07/30 04:58:45;;;;;;;7.55;2.22;;;;;;;16.10;78.18;98595.63;5066349;28;20036;-77
2021/07/30 05:01:10;;;;;;;10.52;2.88;;;;;;;16.04;78.29;98589.97;5066583;28;20039;-75
2021/07/30 05:03:35;;;;;;;7.38;2.25;;;;;;;16.08;78.09;98594.06;5066242;28;20052;-76
2021/07/30 05:06:20;;;;;;;11.38;3.55;;;;;;;16.02;77.99;98582.19;5066311;28;20025;-74
2021/07/30 05:08:46;;;;;;;8.85;3.03;;;;;;;15.98;78.68;98586.78;5066019;28;20021;-77
2021/07/30 05:11:12;;;;;;;12.25;3.72;;;;;;;16.03;78.87;98583.03;5066548;28;20025;-77
2021/07/30 05:13:39;;;;;;;12.57;3.33;;;;;;;16.09;78.87;98575.66;5064498;28;20097;-76
2021/07/30 05:16:09;;;;;;;7.45;2.80;;;;;;;16.16;78.99;98580.50;5066135;28;20028;-75
2021/07/30 05:18:35;;;;;;;12.93;3.58;;;;;;;16.25;78.18;98592.16;5065148;28;20023;-77
2021/07/30 05:21:08;;;;;;;10.85;3.10;;;;;;;16.32;78.12;98591.72;5065951;28;20040;-77
2021/07/30 05:23:34;;;;;;;7.53;3.20;;;;;;;16.47;77.79;98599.53;5064347;28;20025;-77
2021/07/30 05:26:00;;;;;;;12.20;3.30;;;;;;;16.53;77.53;98598.34;5066002;28;20029;-76
2021/07/30 05:28:26;;;;;;;9.45;3.17;;;;;;;16.59;77.28;98585.72;5064572;28;20029;-75
2021/07/30 05:30:51;;;;;;;6.50;2.97;;;;;;;16.63;77.04;98586.34;5066248;28;20020;-75
2021/07/30 05:33:17;;;;;;;9.05;2.97;;;;;;;16.71;76.15;98588.47;5066006;28;20484;-77
2021/07/30 05:35:42;;;;;;;6.40;2.60;;;;;;;16.80;76.16;98587.91;5066073;28;20485;-76
2021/07/30 05:38:07;;;;;;;13.65;2.88;;;;;;;16.92;75.57;98588.03;5065892;28;20021;-77
2021/07/30 05:40:33;;;;;;;6.32;2.15;;;;;;;16.98;75.24;98585.06;5065852;28;20037;-78
2021/07/30 05:42:58;;;;;;;8.32;3.67;;;;;;;17.08;74.60;98582.69;5065535;28;20025;-77
2021/07/30 05:45:24;;;;;;;10.88;3.50;;;;;;;17.08;74.34;98588.78;5065879;28;20036;-76
2021/07/30 05:47:49;;;;;;;12.10;3.35;;;;;;;17.04;74.60;98594.28;5065576;28;20441;-76
2021/07/30 05:50:15;;;;;;;12.25;3.78;;;;;;;16.89;75.48;98601.34;5065969;28;20025;-74
2021/07/30 05:52:40;;;;;;;13.60;5.00;;;;;;;16.58;76.30;98591.88;5064100;28;20029;-73
2021/07/30 05:55:06;;;;;;;13.00;4.78;;;;;;;16.30;77.78;98611.91;5065440;28;20021;-71
2021/07/30 05:57:35;;;;;;;15.90;4.93;;;;;;;15.96;78.81;98606.91;5065559;28;20024;-72
2021/07/30 06:00:01;;;;;;;13.40;5.40;;;;;;;15.69;80.50;98598.91;5063670;28;20116;-72
2021/07/30 06:02:26;;;;;;;8.27;3.92;;;;;;;15.45;82.48;98609.88;5065371;28;20025;-71
2021/07/30 06:04:52;;;;;;;15.38;4.15;;;;;;;15.22;83.55;98597.19;5065636;28;20036;-71
2021/07/30 06:07:17;;;;;;;9.35;4.35;;;;;;;15.04;84.09;98596.50;5065446;28;20104;-71
2021/07/30 06:09:42;;;;;;;11.43;4.38;;;;;;;14.90;84.50;98604.25;5065426;28;20031;-71
2021/07/30 06:12:08;;;;;;;11.63;4.50;;;;;;;14.85;85.28;98609.72;5065240;28;20037;-72
2021/07/30 06:14:33;;;;;;;14.98;4.70;;;;;;;14.85;86.01;98610.59;5063781;28;20055;-72
2021/07/30 06:16:58;;;;;;;12.82;5.15;;;;;;;14.87;85.86;98607.88;5065201;28;20025;-73
2021/07/30 06:19:24;;;;;;;13.57;4.32;;;;;;;14.87;86.44;98613.13;5065388;28;20021;-72
2021/07/30 06:21:49;;;;;;;16.65;5.20;;;;;;;14.90;86.67;98612.09;5063903;28;20092;-73
2021/07/30 06:24:14;;;;;;;10.75;3.22;;;;;;;14.95;86.80;98608.28;5063714;28;20025;-73
2021/07/30 06:26:40;;;;;;;8.05;4.22;;;;;;;14.96;87.03;98607.38;5064921;28;20033;-74
2021/07/30 06:29:05;;;;;;;13.40;5.57;;;;;;;15.04;87.22;98614.78;5065258;28;20025;-74
2021/07/30 06:31:30;;;;;;;11.65;4.38;;;;;;;15.06;87.14;98610.31;5066662;28;20389;-75
2021/07/30 06:33:56;;;;;;;9.93;5.03;;;;;;;15.08;87.38;98595.38;5065929;28;20028;-80
2021/07/30 06:36:21;;;;;;;21.25;6.05;;;;;;;15.10;87.37;98590.91;5064545;28;20128;-76
2021/07/30 06:38:46;;;;;;;15.40;5.05;;;;;;;15.17;87.57;98612.31;5064012;28;20469;-76
2021/07/30 06:41:14;;;;;;;18.98;4.57;;;;;;;15.19;87.63;98593.94;5063532;28;20097;-75
2021/07/30 06:43:39;;;;;;;13.15;4.93;;;;;;;15.24;87.62;98602.34;5063659;28;20108;-76
2021/07/30 06:46:05;;;;;;;14.82;6.03;;;;;;;15.23;87.62;98601.53;5065773;28;20028;-76
2021/07/30 06:48:30;;;;;;;22.08;6.28;;;;;;;15.32;87.71;98592.28;5064754;28;20036;-77
2021/07/30 06:50:56;;;;;;;10.15;4.65;;;;;;;15.38;87.62;98600.72;5065286;28;20086;-77
2021/07/30 06:53:22;;;;;;;14.55;5.63;;;;;;;15.49;87.58;98606.19;5065477;28;20021;-77
2021/07/30 06:55:47;;;;;;;16.13;5.55;;;;;;;15.53;87.44;98607.66;5067604;28;20027;-77
2021/07/30 06:58:12;;;;;;;16.02;4.75;;;;;;;15.55;87.08;98605.81;5069190;28;20036;-76
2021/07/30 07:00:38;;;;;;;13.32;5.15;;;;;;;15.58;86.91;98600.41;5071589;28;20024;-79
2021/07/30 07:03:03;;;;;;;15.70;5.68;;;;;;;15.55;87.00;98603.19;5070791;28;20021;-77
2021/07/30 07:05:29;;;;;;;11.88;5.03;;;;;;;15.60;86.96;98605.56;5068932;28;20025;-77
2021/07/30 07:07:54;;;;;;;15.05;5.30;;;;;;;15.65;86.92;98608.75;5068682;28;20072;-77
2021/07/30 07:10:19;;;;;;;10.98;5.30;;;;;;;15.68;86.60;98608.56;5067313;28;20032;-78
2021/07/30 07:12:45;;;;;;;11.82;4.35;;;;;;;15.66;86.41;98609.56;5068348;28;20031;-79
2021/07/30 07:15:11;;;;;;;5.97;3.85;;;;;;;15.61;86.51;98599.38;5068622;28;20036;-79
2021/07/30 07:17:36;;;;;;;13.93;4.97;;;;;;;15.69;86.16;98612.84;5067377;28;20032;-79
2021/07/30 07:20:02;;;;;;;10.65;3.63;;;;;;;15.68;86.03;98602.47;5068610;28;20028;-76
2021/07/30 07:22:29;;;;;;;10.82;4.70;;;;;;;15.75;86.25;98614.25;5067045;28;20087;-79
2021/07/30 07:24:56;;;;;;;14.23;4.68;;;;;;;15.75;86.15;98614.25;5068719;28;20056;-80
2021/07/30 07:27:21;;;;;;;10.40;4.25;;;;;;;15.74;86.23;98607.34;5068981;28;20025;-78
2021/07/30 07:29:47;;;;;;;15.55;3.03;;;;;;;15.75;86.12;98603.78;5068366;28;20021;-76
2021/07/30 07:32:12;;;;;;;14.10;3.65;;;;;;;15.75;85.90;98603.78;5066771;28;20021;-76
2021/07/30 07:34:37;;;;;;;8.35;2.83;;;;;;;15.74;85.87;98612.59;5068593;28;20020;-77
2021/07/30 07:37:03;;;;;;;11.63;3.20;;;;;;;15.79;85.61;98607.06;5068193;28;20378;-78
2021/07/30 07:39:28;;;;;;;11.18;3.47;;;;;;;15.82;85.01;98605.13;5068480;28;20013;-79
2021/07/30 07:41:53;;;;;;;13.98;3.42;;;;;;;15.88;84.81;98616.16;5069161;28;20024;-81
2021/07/30 07:44:19;;;;;;;10.80;3.45;;;;;;;15.91;84.79;98613.38;5069143;28;20027;-79
2021/07/30 07:46:45;;;;;;;11.10;2.78;;;;;;;15.95;84.31;98615.72;5066952;28;20029;-79
2021/07/30 07:49:10;;;;;;;9.93;3.63;;;;;;;15.98;83.96;98617.31;5068101;28;20021;-79
2021/07/30 07:51:36;;;;;;;14.90;4.80;;;;;;;16.04;84.00;98619.56;5068734;28;20025;-79
2021/07/30 07:54:05;;;;;;;10.55;3.30;;;;;;;16.12;84.11;98616.50;5068964;28;20032;-79
2021/07/30 07:56:31;;;;;;;15.00;4.05;;;;;;;16.19;83.94;98637.91;5068669;28;20039;-79
2021/07/30 07:58:56;;;;;;;10.90;3.28;;;;;;;16.21;83.69;98620.34;5068233;28;20025;-79
2021/07/30 08:01:22;;;;;;;10.88;4.05;;;;;;;16.20;82.77;98623.88;5068043;28;20024;-78
2021/07/30 08:03:47;;;;;;;9.25;2.75;;;;;;;16.21;83.04;98628.19;5066744;28;20024;-79
2021/07/30 08:06:21;;;;;;;10.50;4.13;;;;;;;16.25;82.95;98629.69;5067347;28;20025;-78
2021/07/30 08:08:47;;;;;;;6.53;3.05;;;;;;;16.26;82.74;98628.75;5069146;28;20040;-78
2021/07/30 08:11:13;;;;;;;6.85;2.45;;;;;;;16.26;82.68;98620.06;5067882;28;20025;-77
2021/07/30 08:13:39;;;;;;;14.45;2.60;;;;;;;16.30;82.13;98629.41;5067627;28;20122;-78
2021/07/30 08:16:05;;;;;;;14.95;3.20;;;;;;;16.29;82.52;98628.56;5066189;28;20051;-77
2021/07/30 08:18:30;;;;;;;15.60;3.20;;;;;;;16.22;83.02;98625.47;5066418;28;20028;-76
2021/07/30 08:20:56;;;;;;;6.82;3.90;;;;;;;16.15;83.10;98624.16;5066177;28;20025;-75
2021/07/30 08:23:21;;;;;;;7.47;3.35;;;;;;;16.08;83.81;98631.56;5067544;28;20111;-76
2021/07/30 08:25:46;;;;;;;6.80;3.33;;;;;;;16.15;83.97;98636.41;5067474;28;20025;-75
2021/07/30 08:28:13;;;;;;;9.05;2.92;;;;;;;16.18;83.66;98623.16;5065873;28;20039;-76
2021/07/30 08:30:42;;;;;;;10.77;3.20;;;;;;;16.30;83.62;98626.78;5065627;28;20029;-77
2021/07/30 08:33:07;;;;;;;12.05;3.15;;;;;;;16.34;83.28;98625.69;5067188;28;20021;-78
2021/07/30 08:35:34;;;;;;;13.90;3.60;;;;;;;16.41;83.88;98636.59;5066527;28;20072;-76
2021/07/30 08:37:59;;;;;;;9.15;3.08;;;;;;;16.52;83.72;98642.03;5067154;28;20021;-77
2021/07/30 08:40:30;;;;;;;12.55;3.40;;;;;;;16.59;83.38;98645.97;5067131;28;20032;-77
2021/07/30 08:42:56;;;;;;;6.57;2.47;;;;;;;16.69;83.04;98640.97;5066922;28;20425;-76
2021/07/30 08:45:21;;;;;;;10.18;2.55;;;;;;;16.71;82.73;98646.97;5067222;28;20071;-78
2021/07/30 08:47:48;;;;;;;12.30;2.50;;;;;;;16.66;82.82;98648.19;5066849;28;20033;-77
2021/07/30 08:50:14;;;;;;;16.20;3.78;;;;;;;16.57;82.75;98646.97;5068967;28;20025;-76
2021/07/30 08:52:42;;;;;;;12.50;3.40;;;;;;;16.54;83.45;98653.25;5067553;28;20218;-77
2021/07/30 08:55:08;;;;;;;8.50;3.00;;;;;;;16.49;83.23;98650.06;5065399;28;20029;-76
2021/07/30 08:57:34;;;;;;;13.45;2.80;;;;;;;16.45;83.70;98646.78;5066798;28;20035;-76
2021/07/30 09:00:08;;;;;;;8.77;3.65;;;;;;;16.58;84.05;98648.69;5066227;28;20023;-76
2021/07/30 09:02:34;;;;;;;11.80;3.38;;;;;;;16.72;83.64;98658.28;5065311;28;20029;-77
2021/07/30 09:05:35;;;;;;;11.77;3.20;;;;;;;16.82;83.40;98661.19;5065659;28;20032;-79
2021/07/30 09:08:05;;;;;;;10.38;3.45;;;;;;;17.15;83.70;98654.78;5066800;28;20044;-78
2021/07/30 09:10:42;;;;;;;11.23;2.65;;;;;;;17.65;82.21;98662.03;5066782;28;20162;-77
2021/07/30 09:13:15;;;;;;;8.63;2.55;;;;;;;18.06;81.46;98654.13;5066454;28;20025;-75
2021/07/30 09:15:41;;;;;;;9.27;2.85;;;;;;;18.15;79.72;98656.16;5067113;28;20032;-78
2021/07/30 09:18:08;;;;;;;10.98;3.22;;;;;;;18.06;79.66;98631.34;5066466;28;20021;-79
2021/07/30 09:20:33;;;;;;;10.95;2.90;;;;;;;18.23;79.76;98663.50;5067167;28;20056;-78
2021/07/30 09:22:59;;;;;;;15.13;3.88;;;;;;;18.20;79.40;98661.94;5065305;28;20021;-78
2021/07/30 09:25:35;;;;;;;11.48;2.92;;;;;;;18.24;78.47;98664.38;5064952;28;20060;-78
2021/07/30 09:28:07;;;;;;;14.35;3.83;;;;;;;18.23;78.64;98666.13;5066202;28;20036;-77
2021/07/30 09:30:34;;;;;;;12.98;3.50;;;;;;;18.23;78.37;98662.69;5066587;28;20079;-77
2021/07/30 09:32:59;;;;;;;9.20;3.28;;;;;;;18.27;78.05;98662.38;5066678;28;20465;-79
2021/07/30 09:35:25;;;;;;;10.75;2.95;;;;;;;18.36;78.94;98660.88;5066431;28;20060;-77
2021/07/30 09:38:12;;;;;;;10.60;3.00;;;;;;;18.56;77.16;98667.38;5065193;28;20024;-78
2021/07/30 09:40:38;;;;;;;12.43;2.78;;;;;;;18.45;76.24;98662.06;5066251;28;20104;-79
2021/07/30 09:43:23;;;;;;;10.63;2.85;;;;;;;18.40;76.74;98674.66;5066440;28;20032;-78
2021/07/30 09:45:51;;;;;;;13.90;3.00;;;;;;;18.55;77.59;98673.59;5066468;28;20017;-78
2021/07/30 09:48:19;;;;;;;11.93;3.55;;;;;;;18.73;76.56;98675.03;5066764;28;20040;-77
2021/07/30 09:50:45;;;;;;;10.45;2.85;;;;;;;18.74;76.93;98669.66;5067059;28;20025;-78
2021/07/30 09:53:14;;;;;;;10.13;3.03;;;;;;;18.91;77.06;98678.16;5068816;28;20057;-79
2021/07/30 09:55:40;;;;;;;11.50;3.15;;;;;;;19.07;77.05;98665.56;5067410;28;20107;-78
2021/07/30 09:58:06;;;;;;;11.88;3.55;;;;;;;19.11;75.91;98668.00;5067866;28;20021;-78
2021/07/30 10:00:33;;;;;;;11.93;3.30;;;;;;;19.18;75.86;98675.38;5067413;28;20095;-78
2021/07/30 10:03:01;;;;;;;11.65;4.05;;;;;;;19.18;75.09;98666.63;5067115;28;20358;-79
2021/07/30 10:05:28;;;;;;;13.57;4.07;;;;;;;19.14;75.22;98678.31;5065856;28;20091;-77
2021/07/30 10:07:54;;;;;;;12.25;2.15;;;;;;;19.24;75.31;98675.84;5066367;28;20021;-79
2021/07/30 10:10:27;;;;;;;12.27;4.28;;;;;;;19.24;74.45;98687.22;5066057;28;20081;-78
2021/07/30 10:12:59;;;;;;;13.43;4.13;;;;;;;19.22;74.19;98675.16;5065077;28;20092;-78
2021/07/30 10:15:24;;;;;;;13.60;3.72;;;;;;;19.12;74.69;98685.47;5066698;28;20021;-78
2021/07/30 10:17:57;;;;;;;10.95;3.78;;;;;;;19.10;74.60;98692.63;5066197;28;20032;-77
2021/07/30 10:20:25;;;;;;;12.95;3.65;;;;;;;19.22;75.38;98685.66;5065641;28;20021;-78
2021/07/30 10:23:09;;;;;;;10.10;2.97;;;;;;;19.39;75.56;98687.88;5068735;28;20081;-78
2021/07/30 10:25:40;;;;;;;7.82;3.83;;;;;;;19.66;74.61;98684.19;5049163;28;20055;-78
2021/07/30 10:28:13;;;;;;;12.10;3.85;;;;;;;19.85;73.23;98676.69;5065037;28;20029;-77
2021/07/30 10:30:52;;;;;;;13.75;3.72;;;;;;;19.70;72.68;98674.25;5068580;28;20040;-77
2021/07/30 10:33:30;;;;;;;13.23;3.80;;;;;;;19.81;73.16;98691.88;5068834;28;20469;-77
2021/07/30 10:35:55;;;;;;;12.32;3.58;;;;;;;19.96;72.92;98682.00;5070006;28;20059;-78
2021/07/30 10:38:21;;;;;;;10.25;4.32;;;;;;;20.53;71.35;98671.56;5069993;28;20036;-77
2021/07/30 10:40:55;;;;;;;13.63;3.88;;;;;;;20.78;69.40;98684.63;5070166;28;20017;-76
2021/07/30 10:43:21;;;;;;;12.52;3.38;;;;;;;20.92;68.50;98686.19;5069797;28;20108;-77
2021/07/30 10:46:08;;;;;;;10.90;3.67;;;;;;;20.98;67.41;98675.16;5068623;28;20017;-79
2021/07/30 10:48:41;;;;;;;12.32;4.25;;;;;;;21.24;67.66;98684.56;5069471;28;20016;-77
2021/07/30 10:51:27;;;;;;;11.30;4.30;;;;;;;21.78;66.78;98688.13;5069752;28;20412;-77
2021/07/30 10:53:56;;;;;;;13.65;3.78;;;;;;;22.09;64.20;98690.00;5069150;28;20025;-77
2021/07/30 10:56:21;;;;;;;11.32;3.42;;;;;;;22.33;64.43;98693.31;5069613;28;20025;-78
2021/07/30 10:58:49;;;;;;;15.15;4.28;;;;;;;22.47;63.91;98698.25;5068093;28;20059;-78
2021/07/30 11:01:27;;;;;;;12.25;4.35;;;;;;;22.37;63.22;98700.00;5067636;28;20489;-77
2021/07/30 11:03:52;;;;;;;13.93;4.47;;;;;;;22.17;63.00;98703.38;5069488;28;20473;-78
2021/07/30 11:06:21;;;;;;;13.25;3.53;;;;;;;22.07;63.47;98706.94;5068122;28;20036;-79
2021/07/30 11:09:19;;;;;;;9.68;4.40;;;;;;;22.13;63.37;98698.47;5069203;28;20025;-77
2021/07/30 11:11:51;;;;;;;16.88;3.70;;;;;;;22.22;61.87;98705.63;5060257;28;20068;-78
2021/07/30 11:14:26;;;;;;;13.10;4.10;;;;;;;22.23;62.58;98717.88;5068926;28;20032;-77
2021/07/30 11:16:54;;;;;;;12.18;3.95;;;;;;;22.28;62.01;98705.09;5068876;28;20444;-80
2021/07/30 11:19:24;;;;;;;12.30;3.40;;;;;;;22.18;62.08;98714.78;5069318;28;20465;-77
2021/07/30 11:21:50;;;;;;;18.38;4.60;;;;;;;22.17;62.58;98726.34;5069228;28;20025;-77
2021/07/30 11:24:17;;;;;;;9.55;3.58;;;;;;;22.27;62.41;98719.28;5069134;28;20451;-78
2021/07/30 11:26:42;;;;;;;11.52;3.95;;;;;;;22.26;61.59;98725.56;5069373;28;20017;-77
2021/07/30 11:29:10;;;;;;;10.82;3.83;;;;;;;22.27;61.67;98723.72;5068793;28;20048;-76